Time;durP1;ratioP1;P1;durP2;ratioP2;P2;SDS_P1;SDS_P2;PMS_P1;PMS_P2;Temp;Humidity;BMP_temperature;BMP_pressure;BME280_temperature;BME280_humidity;BME280_pressure;Samples;Min_cycle;Max_cycle;Signal;HPM_P1;HPM_P2
2024/03/14 00:02:12;;;;;;;;;;;;;;;7.63;100.00;99309.25;5054743;28;906;-60
2024/03/14 00:04:40;;;;;;;;;;;;;;;7.63;100.00;99314.75;5054823;28;906;-60
2024/03/14 00:07:07;;;;;;;;;;;;;;;7.63;100.00;99312.00;5054605;28;884;-60
2024/03/14 00:09:34;;;;;;;;;;;;;;;7.64;100.00;99316.31;5054710;28;855;-59
2024/03/14 00:12:00;;;;;;;;;;;;;;;7.70;100.00;99301.81;5055048;28;1943;-61
2024/03/14 00:14:27;;;;;;;;;;;;;;;7.71;100.00;99297.09;5054419;28;1179;-60
2024/03/14 00:16:54;;;;;;;;;;;;;;;7.70;100.00;99301.00;5054778;28;894;-60
2024/03/14 00:19:20;;;;;;;;;;;;;;;7.68;100.00;99295.91;5054496;28;918;-60
2024/03/14 00:21:46;;;;;;;;;;;;;;;7.65;100.00;99293.94;5054253;28;879;-60
2024/03/14 00:24:14;;;;;;;;;;;;;;;7.62;100.00;99296.69;5036494;28;1444;-60
2024/03/14 00:26:43;;;;;;;;;;;;;;;7.55;100.00;99298.28;5054571;28;919;-60
2024/03/14 00:29:10;;;;;;;;;;;;;;;7.49;100.00;99294.34;5054218;28;847;-59
2024/03/14 00:31:39;;;;;;;;;;;;;;;7.42;100.00;99286.09;5054212;28;1914;-60
2024/03/14 00:34:07;;;;;;;;;;;;;;;7.39;100.00;99291.59;5054109;28;824;-59
2024/03/14 00:36:39;;;;;;;;;;;;;;;7.35;100.00;99286.88;5054149;28;840;-60
2024/03/14 00:39:06;;;;;;;;;;;;;;;7.34;100.00;99292.78;5054049;28;914;-59
2024/03/14 00:41:33;;;;;;;;;;;;;;;7.32;100.00;99297.91;5054287;28;841;-61
2024/03/14 00:44:01;;;;;;;;;;;;;;;7.33;100.00;99294.72;5054265;28;816;-60
2024/03/14 00:46:35;;;;;;;;;;;;;;;7.32;100.00;99289.66;5053987;28;851;-60
2024/03/14 00:49:02;;;;;;;;;;;;;;;7.29;100.00;99285.69;5053876;28;879;-59
2024/03/14 00:51:28;;;;;;;;;;;;;;;7.27;100.00;99293.56;5053915;28;1941;-60
2024/03/14 00:53:55;;;;;;;;;;;;;;;7.25;100.00;99297.88;5053805;28;895;-60
2024/03/14 00:56:21;;;;;;;;;;;;;;;7.24;100.00;99288.06;5035866;28;1578;-60
2024/03/14 00:58:48;;;;;;;;;;;;;;;7.23;100.00;99291.97;5053720;28;1012;-60
2024/03/14 01:01:14;;;;;;;;;;;;;;;7.21;100.00;99295.16;5053320;28;898;-60
2024/03/14 01:03:41;;;;;;;;;;;;;;;7.22;100.00;99298.66;5053631;28;832;-60
2024/03/14 01:06:11;;;;;;;;;;;;;;;7.24;100.00;99288.84;5053549;28;856;-60
2024/03/14 01:08:38;;;;;;;;;;;;;;;7.27;100.00;99290.81;5053879;28;827;-60
2024/03/14 01:11:05;;;;;;;;;;;;;;;7.31;100.00;99294.34;5053663;28;1964;-61
2024/03/14 01:13:32;;;;;;;;;;;;;;;7.34;100.00;99296.31;5053369;28;1416;-60
2024/03/14 01:15:59;;;;;;;;;;;;;;;7.34;100.00;99301.03;5053437;28;866;-60
2024/03/14 01:18:27;;;;;;;;;;;;;;;7.35;100.00;99305.34;5053494;28;863;-61
2024/03/14 01:20:54;;;;;;;;;;;;;;;7.35;100.00;99297.09;5053311;28;911;-60
2024/03/14 01:23:22;;;;;;;;;;;;;;;7.34;100.00;99296.31;5053252;28;839;-60
2024/03/14 01:25:49;;;;;;;;;;;;;;;7.33;100.00;99299.44;5053268;28;879;-59
2024/03/14 01:28:15;;;;;;;;;;;;;;;7.33;100.00;99297.47;5053336;28;945;-60
2024/03/14 01:30:42;;;;;;;;;;;;;;;7.35;100.00;99297.09;5053194;28;911;-60
2024/03/14 01:33:09;;;;;;;;;;;;;;;7.36;100.00;99301.41;5053064;28;1911;-60
2024/03/14 01:35:35;;;;;;;;;;;;;;;7.36;100.00;99301.41;5053368;28;796;-60
2024/03/14 01:38:02;;;;;;;;;;;;;;;7.34;100.00;99295.53;5052976;28;851;-60
2024/03/14 01:40:29;;;;;;;;;;;;;;;7.30;100.00;99292.78;5052980;28;887;-61
2024/03/14 01:42:56;;;;;;;;;;;;;;;7.25;100.00;99298.66;5052846;28;896;-60
2024/03/14 01:45:22;;;;;;;;;;;;;;;7.24;100.00;99293.56;5052831;28;815;-60
2024/03/14 01:47:50;;;;;;;;;;;;;;;7.21;100.00;99300.66;5052608;28;914;-60
2024/03/14 01:50:16;;;;;;;;;;;;;;;7.20;100.00;99303.78;5053006;28;903;-60
2024/03/14 01:52:44;;;;;;;;;;;;;;;7.19;100.00;99294.75;5052671;28;1887;-60
2024/03/14 01:55:11;;;;;;;;;;;;;;;7.19;100.00;99296.69;5052597;28;836;-60
2024/03/14 01:57:39;;;;;;;;;;;;;;;7.19;100.00;99296.69;5052668;28;832;-60
2024/03/14 02:00:06;;;;;;;;;;;;;;;7.21;100.00;99294.34;5052509;28;871;-60
2024/03/14 02:02:35;;;;;;;;;;;;;;;7.23;100.00;99292.75;5052463;28;947;-60
2024/03/14 02:05:29;;;;;;;;;;;;;;;7.24;100.00;99299.06;5052621;28;957;-60
2024/03/14 02:07:56;;;;;;;;;;;;;;;7.23;100.00;99291.97;5049649;28;1185;-60
2024/03/14 02:10:25;;;;;;;;;;;;;;;7.22;100.00;99298.66;5052429;28;1198;-60
2024/03/14 02:12:55;;;;;;;;;;;;;;;7.21;100.00;99294.34;5051939;28;1878;-61
2024/03/14 02:15:24;;;;;;;;;;;;;;;7.20;100.00;99295.53;5052347;28;831;-60
2024/03/14 02:17:53;;;;;;;;;;;;;;;7.18;100.00;99297.88;5052149;28;836;-60
2024/03/14 02:20:23;;;;;;;;;;;;;;;7.18;100.00;99298.66;5052347;28;871;-61
2024/03/14 02:22:51;;;;;;;;;;;;;;;7.19;100.00;99291.19;5052093;28;855;-60
2024/03/14 02:25:18;;;;;;;;;;;;;;;7.18;100.00;99298.66;5052128;28;930;-60
2024/03/14 02:27:45;;;;;;;;;;;;;;;7.22;100.00;99299.44;5051935;28;879;-61
2024/03/14 02:30:11;;;;;;;;;;;;;;;7.22;100.00;99296.72;5052043;28;848;-61
2024/03/14 02:32:38;;;;;;;;;;;;;;;7.23;100.00;99301.00;5051891;28;1902;-61
2024/03/14 02:35:05;;;;;;;;;;;;;;;7.25;100.00;99303.38;5052154;28;865;-60
2024/03/14 02:37:32;;;;;;;;;;;;;;;7.25;100.00;99298.66;5051913;28;856;-61
2024/03/14 02:39:58;;;;;;;;;;;;;;;7.26;100.00;99297.50;5051837;28;883;-61
2024/03/14 02:42:25;;;;;;;;;;;;;;;7.26;100.00;99291.22;5052055;28;836;-61
2024/03/14 02:44:52;;;;;;;;;;;;;;;7.27;100.00;99296.31;5051741;28;859;-61
2024/03/14 02:47:18;;;;;;;;;;;;;;;7.26;100.00;99296.72;5051795;28;886;-61
2024/03/14 02:49:44;;;;;;;;;;;;;;;7.25;100.00;99297.88;5051752;28;832;-60
2024/03/14 02:52:15;;;;;;;;;;;;;;;7.25;100.00;99301.41;5051796;28;1943;-60
2024/03/14 02:54:47;;;;;;;;;;;;;;;7.23;100.00;99295.50;5051710;28;977;-60
2024/03/14 02:57:13;;;;;;;;;;;;;;;7.22;100.00;99296.72;5051857;28;828;-59
2024/03/14 02:59:40;;;;;;;;;;;;;;;7.19;100.00;99297.50;5051639;28;852;-59
2024/03/14 03:02:11;;;;;;;;;;;;;;;7.19;100.00;99296.69;5051987;28;823;-60
2024/03/14 03:04:39;;;;;;;;;;;;;;;7.16;100.00;99301.78;5051699;28;1189;-59
2024/03/14 03:07:06;;;;;;;;;;;;;;;7.16;100.00;99304.53;5051820;28;870;-61
2024/03/14 03:09:38;;;;;;;;;;;;;;;7.16;100.00;99301.00;5051830;28;800;-60
2024/03/14 03:12:10;;;;;;;;;;;;;;;7.16;100.00;99301.78;5051626;28;1881;-60
2024/03/14 03:14:36;;;;;;;;;;;;;;;7.16;100.00;99298.25;5051358;28;1296;-60
2024/03/14 03:17:05;;;;;;;;;;;;;;;7.16;100.00;99307.28;5051524;28;831;-60
2024/03/14 03:19:31;;;;;;;;;;;;;;;7.18;100.00;99303.38;5051527;28;883;-61
2024/03/14 03:22:02;;;;;;;;;;;;;;;7.17;100.00;99310.84;5051524;28;833;-60
2024/03/14 03:24:28;;;;;;;;;;;;;;;7.18;100.00;99308.88;5052471;28;980;-60
2024/03/14 03:26:56;;;;;;;;;;;;;;;7.16;100.00;99315.53;5037528;28;1228;-60
2024/03/14 03:29:23;;;;;;;;;;;;;;;7.17;100.00;99313.59;5037486;28;1361;-60
2024/03/14 03:31:50;;;;;;;;;;;;;;;7.16;100.00;99317.50;5055296;28;1906;-60
2024/03/14 03:34:23;;;;;;;;;;;;;;;7.15;100.00;99313.97;5055292;28;878;-59
2024/03/14 03:36:50;;;;;;;;;;;;;;;7.16;100.00;99317.50;5037397;28;1386;-59
2024/03/14 03:39:17;;;;;;;;;;;;;;;7.19;100.00;99318.69;5055418;28;1276;-60
2024/03/14 03:41:43;;;;;;;;;;;;;;;7.19;100.00;99314.00;5055561;28;1163;-60
2024/03/14 03:44:10;;;;;;;;;;;;;;;7.18;100.00;99315.16;5055122;28;849;-60
2024/03/14 03:46:42;;;;;;;;;;;;;;;7.18;100.00;99319.88;5055070;28;863;-60
2024/03/14 03:49:08;;;;;;;;;;;;;;;7.16;100.00;99320.25;5055033;28;867;-59
2024/03/14 03:51:35;;;;;;;;;;;;;;;7.13;100.00;99321.81;5054831;28;1882;-60
2024/03/14 03:54:11;;;;;;;;;;;;;;;7.12;100.00;99327.72;5055201;28;851;-60
2024/03/14 03:56:40;;;;;;;;;;;;;;;7.10;100.00;99325.34;5054866;28;907;-60
2024/03/14 03:59:08;;;;;;;;;;;;;;;7.09;100.00;99334.00;5054771;28;951;-59
2024/03/14 04:01:35;;;;;;;;;;;;;;;7.09;100.00;99320.25;5054810;28;863;-59
2024/03/14 04:04:02;;;;;;;;;;;;;;;7.10;100.00;99328.09;5054789;28;871;-60
2024/03/14 04:06:28;;;;;;;;;;;;;;;7.13;100.00;99326.53;5054678;28;832;-59
2024/03/14 04:08:55;;;;;;;;;;;;;;;7.13;100.00;99326.53;5054717;28;910;-59
2024/03/14 04:11:22;;;;;;;;;;;;;;;7.14;100.00;99323.38;5036725;28;1882;-59
2024/03/14 04:13:49;;;;;;;;;;;;;;;7.15;100.00;99326.94;5054424;28;1253;-58
2024/03/14 04:16:16;;;;;;;;;;;;;;;7.16;100.00;99328.50;5036635;28;1299;-58
2024/03/14 04:18:44;;;;;;;;;;;;;;;7.14;100.00;99325.34;5054659;28;840;-58
2024/03/14 04:21:15;;;;;;;;;;;;;;;7.12;100.00;99328.47;5054474;28;844;-58
2024/03/14 04:23:42;;;;;;;;;;;;;;;7.11;100.00;99324.19;5036531;28;1823;-58
2024/03/14 04:26:15;;;;;;;;;;;;;;;7.11;100.00;99329.69;5054360;28;907;-59
2024/03/14 04:28:42;;;;;;;;;;;;;;;7.11;100.00;99337.13;5054160;28;1277;-59
2024/03/14 04:31:09;;;;;;;;;;;;;;;7.10;100.00;99339.09;5036549;28;1906;-59
2024/03/14 04:33:37;;;;;;;;;;;;;;;7.11;100.00;99332.44;5054277;28;921;-59
2024/03/14 04:36:04;;;;;;;;;;;;;;;7.11;100.00;99331.66;5053486;28;883;-59
2024/03/14 04:38:32;;;;;;;;;;;;;;;7.12;100.00;99342.22;5054180;28;824;-59
2024/03/14 04:40:59;;;;;;;;;;;;;;;7.14;100.00;99337.13;5053982;28;1221;-59
2024/03/14 04:43:27;;;;;;;;;;;;;;;7.16;100.00;99347.75;5054015;28;828;-59
2024/03/14 04:45:53;;;;;;;;;;;;;;;7.20;100.00;99342.25;5053865;28;899;-59
2024/03/14 04:48:20;;;;;;;;;;;;;;;7.22;100.00;99345.41;5053995;28;879;-59
2024/03/14 04:50:48;;;;;;;;;;;;;;;7.25;100.00;99341.84;5053944;28;1078;-60
2024/03/14 04:53:16;;;;;;;;;;;;;;;7.29;100.00;99348.16;5053723;28;1894;-59
2024/03/14 04:55:45;;;;;;;;;;;;;;;7.34;100.00;99348.56;5053811;28;870;-59
2024/03/14 04:58:15;;;;;;;;;;;;;;;7.40;100.00;99351.69;5053718;28;886;-59
2024/03/14 05:00:41;;;;;;;;;;;;;;;7.46;100.00;99357.59;5053556;28;891;-59
2024/03/14 05:03:08;;;;;;;;;;;;;;;7.49;100.00;99360.34;5053593;28;835;-59
2024/03/14 05:05:35;;;;;;;;;;;;;;;7.52;100.00;99359.56;5053745;28;828;-59
2024/03/14 05:08:01;;;;;;;;;;;;;;;7.56;100.00;99359.56;5053484;28;858;-59
2024/03/14 05:10:28;;;;;;;;;;;;;;;7.61;100.00;99358.38;5053713;28;911;-59
2024/03/14 05:12:57;;;;;;;;;;;;;;;7.65;100.00;99359.16;5053471;28;1902;-59
2024/03/14 05:15:24;;;;;;;;;;;;;;;7.69;100.00;99368.22;5053466;28;824;-59
2024/03/14 05:17:53;;;;;;;;;;;;;;;7.72;100.00;99361.91;5053430;28;839;-59
2024/03/14 05:20:19;;;;;;;;;;;;;;;7.72;100.00;99364.66;5053357;28;983;-59
2024/03/14 05:22:46;;;;;;;;;;;;;;;7.77;100.00;99367.03;5053245;28;953;-59
2024/03/14 05:25:12;;;;;;;;;;;;;;;7.84;100.00;99371.75;5053322;28;883;-58
2024/03/14 05:27:39;;;;;;;;;;;;;;;7.87;100.00;99379.19;5035293;28;1372;-59
2024/03/14 05:30:06;;;;;;;;;;;;;;;7.86;100.00;99377.63;5053227;28;870;-59
2024/03/14 05:32:34;;;;;;;;;;;;;;;7.91;100.00;99385.47;5053343;28;1969;-59
2024/03/14 05:35:00;;;;;;;;;;;;;;;7.92;100.00;99381.56;5053008;28;947;-58
2024/03/14 05:37:26;;;;;;;;;;;;;;;7.91;100.00;99380.75;5052818;28;934;-58
2024/03/14 05:39:53;;;;;;;;;;;;;;;7.96;100.00;99382.34;5052909;28;929;-58
2024/03/14 05:42:20;;;;;;;;;;;;;;;7.92;100.00;99381.56;5052905;28;1088;-58
2024/03/14 05:44:50;;;;;;;;;;;;;;;7.91;100.00;99385.47;5052937;28;899;-58
2024/03/14 05:47:17;;;;;;;;;;;;;;;7.91;100.00;99383.50;5052367;28;886;-59
2024/03/14 05:49:43;;;;;;;;;;;;;;;7.96;100.00;99388.63;5052264;28;987;-59
2024/03/14 05:52:10;;;;;;;;;;;;;;;8.03;100.00;99395.31;5052622;28;1882;-58
2024/03/14 05:54:37;;;;;;;;;;;;;;;8.01;100.00;99405.94;5052584;28;867;-58
2024/03/14 05:57:04;;;;;;;;;;;;;;;8.01;100.00;99394.91;5052994;28;804;-58
2024/03/14 05:59:30;;;;;;;;;;;;;;;7.97;100.00;99395.69;5052588;28;919;-58
2024/03/14 06:01:57;;;;;;;;;;;;;;;8.02;100.00;99401.97;5052578;28;862;-58
2024/03/14 06:04:23;;;;;;;;;;;;;;;8.13;100.00;99402.78;5052496;28;832;-57
2024/03/14 06:06:50;;;;;;;;;;;;;;;8.21;100.00;99411.78;5052464;28;841;-58
2024/03/14 06:09:17;;;;;;;;;;;;;;;8.22;100.00;99410.63;5052413;28;974;-57
2024/03/14 06:11:44;;;;;;;;;;;;;;;8.23;100.00;99412.19;5052331;28;1882;-57
2024/03/14 06:14:11;;;;;;;;;;;;;;;8.30;100.00;99407.47;5052189;28;1252;-57
2024/03/14 06:16:37;;;;;;;;;;;;;;;8.47;100.00;99407.81;5052252;28;826;-57
2024/03/14 06:19:06;;;;;;;;;;;;;;;8.56;100.00;99411.75;5052272;28;852;-56
2024/03/14 06:21:37;;;;;;;;;;;;;;;8.57;100.00;99413.31;5052115;28;848;-56
2024/03/14 06:24:04;;;;;;;;;;;;;;;8.58;100.00;99416.88;5052217;28;812;-57
2024/03/14 06:26:31;;;;;;;;;;;;;;;8.57;100.00;99427.06;5034270;28;928;-57
2024/03/14 06:28:57;;;;;;;;;;;;;;;8.54;100.00;99422.38;5052026;28;864;-56
2024/03/14 06:31:24;;;;;;;;;;;;;;;8.55;100.00;99423.16;5052087;28;1987;-56
2024/03/14 06:33:51;;;;;;;;;;;;;;;8.66;100.00;99425.88;5034141;28;855;-56
2024/03/14 06:36:17;;;;;;;;;;;;;;;8.67;100.00;99432.97;5051886;28;884;-56
2024/03/14 06:38:45;;;;;;;;;;;;;;;8.67;100.00;99438.47;5051812;28;922;-56
2024/03/14 06:41:13;;;;;;;;;;;;;;;8.66;100.00;99440.44;5051886;28;876;-56
2024/03/14 06:43:42;;;;;;;;;;;;;;;8.70;100.00;99443.97;5051768;28;888;-56
2024/03/14 06:46:10;;;;;;;;;;;;;;;8.70;100.00;99446.72;5051782;28;1166;-55
2024/03/14 06:48:36;;;;;;;;;;;;;;;8.75;100.00;99451.06;5051700;28;935;-56
2024/03/14 06:51:02;;;;;;;;;;;;;;;8.89;100.00;99453.75;5051744;28;856;-55
2024/03/14 06:53:29;;;;;;;;;;;;;;;8.88;100.00;99459.66;5051687;28;1968;-55
2024/03/14 06:56:29;;;;;;;;;;;;;;;8.76;100.00;99458.13;5051768;28;874;-54
2024/03/14 06:58:55;;;;;;;;;;;;;;;8.63;100.00;99460.53;5033313;28;2186;-55
2024/03/14 07:01:21;;;;;;;;;;;;;;;8.74;100.00;99457.72;5051666;28;820;-54
2024/03/14 07:03:48;;;;;;;;;;;;;;;8.78;100.00;99459.28;5051732;28;836;-55
2024/03/14 07:06:15;;;;;;;;;;;;;;;8.88;100.00;99454.16;5051971;28;848;-56
2024/03/14 07:08:43;;;;;;;;;;;;;;;9.00;100.00;99461.97;5051653;28;929;-56
2024/03/14 07:11:11;;;;;;;;;;;;;;;9.01;100.00;99455.28;5033558;28;1894;-56
2024/03/14 07:13:38;;;;;;;;;;;;;;;8.89;100.00;99464.00;5051431;28;1241;-55
2024/03/14 07:16:10;;;;;;;;;;;;;;;8.73;100.00;99461.69;5051818;28;922;-56
2024/03/14 07:18:38;;;;;;;;;;;;;;;8.60;100.00;99464.09;5051558;28;887;-56
2024/03/14 07:21:12;;;;;;;;;;;;;;;8.48;100.00;99461.75;5051422;28;863;-53
2024/03/14 07:23:39;;;;;;;;;;;;;;;8.50;100.00;99464.88;5051743;28;821;-53
2024/03/14 07:26:05;;;;;;;;;;;;;;;8.45;100.00;99463.31;5051557;28;1297;-51
2024/03/14 07:28:32;;;;;;;;;;;;;;;8.46;100.00;99461.34;5051528;28;1197;-51
2024/03/14 07:30:58;;;;;;;;;;;;;;;8.47;100.00;99465.66;5051365;28;975;-51
2024/03/14 07:33:25;;;;;;;;;;;;;;;8.44;100.00;99460.97;5051262;28;1975;-52
2024/03/14 07:35:54;;;;;;;;;;;;;;;8.46;100.00;99467.63;5051334;28;895;-50
2024/03/14 07:38:27;;;;;;;;;;;;;;;8.37;100.00;99464.47;5051424;28;954;-50
2024/03/14 07:40:54;;;;;;;;;;;;;;;8.41;100.00;99470.00;5051344;28;902;-55
2024/03/14 07:55:32;;;;;;;;;;;;;;;8.42;100.00;99479.84;5051039;28;631;-51
2024/03/14 07:57:58;;;;;;;;;;;;;;;8.24;100.00;99469.63;5051213;28;966;-52
2024/03/14 08:00:33;;;;;;;;;;;;;;;8.16;100.00;99471.56;5051371;28;842;-52
2024/03/14 08:02:59;;;;;;;;;;;;;;;8.19;100.00;99475.50;5051187;28;881;-50
2024/03/14 08:05:26;;;;;;;;;;;;;;;8.31;100.00;99474.31;5051018;28;961;-51
2024/03/14 08:08:12;;;;;;;;;;;;;;;8.36;100.00;99465.66;5051151;28;852;-50
2024/03/14 08:10:45;;;;;;;;;;;;;;;8.32;100.00;99481.38;5033138;28;1169;-50
2024/03/14 08:13:23;;;;;;;;;;;;;;;8.47;100.00;99477.50;5054558;28;1901;-50
2024/03/14 08:15:53;;;;;;;;;;;;;;;8.82;100.00;99483.31;5054575;28;872;-50
2024/03/14 08:18:23;;;;;;;;;;;;;;;9.03;100.00;99483.25;5054635;28;832;-52
2024/03/14 08:20:50;;;;;;;;;;;;;;;9.22;100.00;99481.16;5054423;28;915;-55
2024/03/14 08:23:16;;;;;;;;;;;;;;;9.16;100.00;99480.81;5054400;28;929;-54
2024/03/14 08:25:43;;;;;;;;;;;;;;;9.11;100.00;99486.72;5054505;28;816;-54
2024/03/14 08:28:10;;;;;;;;;;;;;;;9.00;100.00;99478.50;5054384;28;914;-55
2024/03/14 08:30:37;;;;;;;;;;;;;;;8.93;100.00;99486.81;5054267;28;951;-54
2024/03/14 08:33:04;;;;;;;;;;;;;;;9.03;100.00;99486.00;5054115;28;1969;-52
2024/03/14 08:35:30;;;;;;;;;;;;;;;9.09;100.00;99481.63;5054377;28;875;-54
2024/03/14 08:38:00;;;;;;;;;;;;;;;9.16;100.00;99483.59;5054221;28;855;-54
2024/03/14 08:40:27;;;;;;;;;;;;;;;9.17;100.00;99485.13;5054309;28;859;-54
2024/03/14 08:42:53;;;;;;;;;;;;;;;9.14;100.00;99486.72;5054188;28;852;-53
2024/03/14 08:45:20;;;;;;;;;;;;;;;9.12;100.00;99486.34;5054119;28;839;-54
2024/03/14 08:47:47;;;;;;;;;;;;;;;9.37;100.00;99490.97;5036210;28;899;-54
2024/03/14 08:50:34;;;;;;;;;;;;;;;9.39;100.00;99486.63;5053824;28;958;-54
2024/03/14 08:53:01;;;;;;;;;;;;;;;9.48;100.00;99483.41;5035771;28;1909;-55
2024/03/14 08:58:33;;;;;;;;;;;;;;;9.59;100.00;99481.38;5053924;28;1639;-55
2024/03/14 09:01:03;;;;;;;;;;;;;;;9.48;100.00;99480.66;5053819;28;876;-55
2024/03/14 09:03:29;;;;;;;;;;;;;;;9.41;100.00;99486.22;5053632;28;970;-56
2024/03/14 09:05:57;;;;;;;;;;;;;;;9.50;100.00;99486.56;5053766;28;871;-56
2024/03/14 09:08:24;;;;;;;;;;;;;;;9.63;100.00;99477.81;5053531;28;887;-57
2024/03/14 09:10:53;;;;;;;;;;;;;;;9.47;100.00;99481.84;5053375;28;1064;-57
2024/03/14 09:13:20;;;;;;;;;;;;;;;9.29;100.00;99483.91;5053247;28;1890;-57
2024/03/14 09:15:50;;;;;;;;;;;;;;;9.18;100.00;99483.97;5053468;28;903;-57
2024/03/14 09:18:24;;;;;;;;;;;;;;;9.15;100.00;99482.81;5053580;28;899;-57
2024/03/14 09:20:55;;;;;;;;;;;;;;;9.25;100.00;99483.16;5053239;28;970;-56
2024/03/14 09:23:25;;;;;;;;;;;;;;;9.23;100.00;99483.53;5053287;28;898;-56
2024/03/14 09:38:04;;;;;;;;;;;;;;;9.32;100.00;99489.41;5052788;28;666;-56
2024/03/14 10:12:26;;;;;;;;;;;;;;;9.49;100.00;99484.97;6096187;22;1643;-51
2024/03/14 10:15:01;;;;;;;;;;;;;;;9.07;100.00;99480.44;5012889;28;855;-54
2024/03/14 10:17:32;;;;;;;;;;;;;;;8.59;100.00;99493.56;5012805;28;823;-54
2024/03/14 10:19:59;;;;;;;;;;;;;;;8.42;100.00;99501.88;5012438;28;1252;-55
2024/03/14 10:22:32;;;;;;;;;;;;;;;8.35;100.00;99497.13;5012712;28;926;-55
2024/03/14 10:25:04;;;;;;;;;;;;;;;8.23;100.00;99489.28;4994912;28;2182;-56
2024/03/14 10:27:30;;;;;;;;;;;;;;;8.06;100.00;99499.88;5012564;28;973;-57
2024/03/14 10:29:57;;;;;;;;;;;;;;;7.92;100.00;99492.41;4994808;28;1173;-57
2024/03/14 10:32:24;;;;;;;;;;;;;;;7.88;100.00;99499.88;5012375;28;1938;-57
2024/03/14 10:34:51;;;;;;;;;;;;;;;7.81;100.00;99491.63;5012014;28;859;-57
2024/03/14 10:37:22;;;;;;;;;;;;;;;8.05;100.00;99495.56;5012355;28;844;-56
2024/03/14 10:39:53;;;;;;;;;;;;;;;8.20;100.00;99490.84;5012309;28;899;-57
2024/03/14 10:42:24;;;;;;;;;;;;;;;8.28;100.00;99492.44;5012199;28;876;-56
2024/03/14 10:44:52;;;;;;;;;;;;;;;8.52;100.00;99492.81;5012278;28;864;-57
2024/03/14 10:47:19;;;;;;;;;;;;;;;8.51;100.00;99488.47;5012583;28;945;-57
2024/03/14 10:49:47;;;;;;;;;;;;;;;8.34;100.00;99490.03;5012292;28;888;-57
2024/03/14 10:52:17;;;;;;;;;;;;;;;8.16;100.00;99484.56;5012098;28;1894;-57
2024/03/14 10:54:49;;;;;;;;;;;;;;;8.16;100.00;99501.06;5012226;28;900;-58
2024/03/14 10:57:16;;;;;;;;;;;;;;;8.30;100.00;99492.81;5012106;28;836;-57
2024/03/14 10:59:44;;;;;;;;;;;;;;;8.43;100.00;99490.47;5012008;28;926;-57
2024/03/14 11:02:14;;;;;;;;;;;;;;;8.58;100.00;99488.50;5012013;28;946;-58
2024/03/14 11:04:41;;;;;;;;;;;;;;;8.47;100.00;99493.19;5011925;28;817;-57
2024/03/14 11:07:08;;;;;;;;;;;;;;;8.27;100.00;99493.59;5012117;28;809;-57
2024/03/14 11:09:46;;;;;;;;;;;;;;;8.14;100.00;99484.16;5011980;28;887;-57
2024/03/14 11:12:18;;;;;;;;;;;;;;;8.01;100.00;99485.75;5012105;28;1969;-57
2024/03/14 11:14:50;;;;;;;;;;;;;;;7.96;100.00;99478.66;5050261;28;1324;-57
2024/03/14 11:17:20;;;;;;;;;;;;;;;8.06;100.00;99483.38;5051658;28;843;-57
2024/03/14 11:19:50;;;;;;;;;;;;;;;8.02;100.00;99479.81;5051567;28;894;-57
2024/03/14 11:22:18;;;;;;;;;;;;;;;8.04;100.00;99479.44;5051611;28;812;-57
2024/03/14 11:24:48;;;;;;;;;;;;;;;8.02;100.00;99474.31;5051384;28;911;-57
2024/03/14 11:27:16;;;;;;;;;;;;;;;8.03;100.00;99480.63;5051356;28;867;-57
2024/03/14 11:29:44;;;;;;;;;;;;;;;8.06;100.00;99482.59;5051500;28;910;-57
2024/03/14 11:32:11;;;;;;;;;;;;;;;8.08;100.00;99486.50;5051226;28;1918;-56
2024/03/14 11:34:38;;;;;;;;;;;;;;;8.09;100.00;99482.59;5051410;28;840;-57
2024/03/14 11:37:05;;;;;;;;;;;;;;;7.97;100.00;99485.72;5051373;28;848;-57
2024/03/14 11:39:36;;;;;;;;;;;;;;;8.03;100.00;99483.38;5051327;28;975;-57
2024/03/14 11:42:13;;;;;;;;;;;;;;;7.89;100.00;99481.41;5033672;28;984;-57
2024/03/14 11:44:46;;;;;;;;;;;;;;;7.75;100.00;99484.94;5051539;28;868;-56
2024/03/14 11:47:18;;;;;;;;;;;;;;;7.62;100.00;99486.47;5053484;28;831;-56
2024/03/14 11:49:46;;;;;;;;;;;;;;;7.48;100.00;99489.97;5038284;28;796;-56
2024/03/14 11:52:15;;;;;;;;;;;;;;;7.44;100.00;99480.94;5054975;28;1894;-55
2024/03/14 11:54:42;;;;;;;;;;;;;;;7.43;100.00;99493.13;5054988;28;868;-57
2024/03/14 11:57:14;;;;;;;;;;;;;;;7.41;100.00;99487.22;5055090;28;832;-58
2024/03/14 11:59:41;;;;;;;;;;;;;;;7.38;100.00;99494.25;5037093;28;899;-57
2024/03/14 12:02:08;;;;;;;;;;;;;;;7.24;100.00;99489.53;5054993;28;832;-58
2024/03/14 12:04:35;;;;;;;;;;;;;;;7.14;100.00;99487.50;5054763;28;896;-58
2024/03/14 12:07:04;;;;;;;;;;;;;;;6.99;100.00;99500.41;5055039;28;943;-58
2024/03/14 12:09:33;;;;;;;;;;;;;;;6.93;100.00;99500.00;5036924;28;1475;-58
2024/03/14 12:11:59;;;;;;;;;;;;;;;6.92;100.00;99490.16;5054702;28;2329;-58
2024/03/14 12:14:27;;;;;;;;;;;;;;;6.90;100.00;99487.03;5054584;28;1245;-60
2024/03/14 12:16:54;;;;;;;;;;;;;;;6.90;100.00;99502.72;5054671;28;827;-64
2024/03/14 12:19:19;;;;;;;;;;;;;;;6.90;100.00;99491.72;5054634;28;860;-62
2024/03/14 12:21:55;;;;;;;;;;;;;;;6.90;100.00;99489.00;5054580;28;841;-62
2024/03/14 12:24:23;;;;;;;;;;;;;;;6.90;100.00;99492.50;5055161;28;831;-65
2024/03/14 12:26:52;;;;;;;;;;;;;;;6.91;100.00;99502.34;5054575;28;816;-65
2024/03/14 12:29:20;;;;;;;;;;;;;;;6.89;100.00;99509.38;5054500;28;799;-67
2024/03/14 12:31:47;;;;;;;;;;;;;;;6.92;100.00;99497.63;5054344;28;1918;-68
2024/03/14 12:34:14;;;;;;;;;;;;;;;6.97;100.00;99496.47;5054398;28;930;-68
2024/03/14 12:36:41;;;;;;;;;;;;;;;6.99;100.00;99500.41;5054281;28;903;-69
2024/03/14 12:39:11;;;;;;;;;;;;;;;7.06;100.00;99499.63;5054312;28;807;-69
2024/03/14 12:41:38;;;;;;;;;;;;;;;7.06;100.00;99503.19;5054193;28;875;-67
2024/03/14 12:44:05;;;;;;;;;;;;;;;7.06;100.00;99511.44;5036207;28;1268;-69
2024/03/14 12:46:33;;;;;;;;;;;;;;;7.11;100.00;99502.81;5036468;28;1360;-68
2024/03/14 12:49:11;;;;;;;;;;;;;;;7.19;100.00;99505.59;5054132;28;903;-69
2024/03/14 12:51:38;;;;;;;;;;;;;;;7.19;100.00;99522.88;5036050;28;1941;-70
2024/03/14 12:54:04;;;;;;;;;;;;;;;7.23;100.00;99514.63;5036087;28;1406;-69
2024/03/14 12:56:32;;;;;;;;;;;;;;;7.28;100.00;99511.53;5053831;28;812;-69
2024/03/14 12:59:01;;;;;;;;;;;;;;;7.22;100.00;99510.31;5035659;28;1551;-68
2024/03/14 13:01:30;;;;;;;;;;;;;;;7.26;100.00;99511.91;5053860;28;1218;-68
2024/03/14 13:04:01;;;;;;;;;;;;;;;7.14;100.00;99507.53;5053847;28;879;-68
2024/03/14 13:06:30;;;;;;;;;;;;;;;7.16;100.00;99518.16;5053985;28;903;-69
2024/03/14 13:09:14;;;;;;;;;;;;;;;7.05;100.00;99523.59;5053666;28;889;-68
2024/03/14 13:11:59;;;;;;;;;;;;;;;7.02;100.00;99513.38;5053677;28;1890;-69
2024/03/14 13:14:26;;;;;;;;;;;;;;;6.97;100.00;99516.50;5053235;28;1543;-69
2024/03/14 13:16:59;;;;;;;;;;;;;;;6.93;100.00;99526.66;5053745;28;855;-72
2024/03/14 13:19:25;;;;;;;;;;;;;;;6.86;100.00;99513.69;5053463;28;876;-72
2024/03/14 13:21:55;;;;;;;;;;;;;;;6.84;100.00;99527.00;5053701;28;875;-74
2024/03/14 13:24:24;;;;;;;;;;;;;;;6.85;100.00;99534.09;5053870;28;781;-72
2024/03/14 13:26:58;;;;;;;;;;;;;;;6.83;100.00;99532.88;5054287;28;874;-74
2024/03/14 13:29:25;;;;;;;;;;;;;;;6.87;100.00;99536.44;5053819;28;835;-74
2024/03/14 13:31:55;;;;;;;;;;;;;;;6.90;100.00;99538.44;5053620;28;1914;-74
2024/03/14 13:34:22;;;;;;;;;;;;;;;6.98;100.00;99539.25;5053413;28;828;-74
2024/03/14 13:36:52;;;;;;;;;;;;;;;7.03;100.00;99536.16;5053511;28;883;-74
2024/03/14 13:39:19;;;;;;;;;;;;;;;6.99;100.00;99535.34;5053813;28;852;-75
2024/03/14 13:41:46;;;;;;;;;;;;;;;7.03;100.00;99531.44;5053236;28;887;-69
2024/03/14 13:44:12;;;;;;;;;;;;;;;7.01;100.00;99539.28;5053030;28;906;-72
2024/03/14 13:46:43;;;;;;;;;;;;;;;7.06;100.00;99544.44;5053058;28;824;-70
2024/03/14 13:49:11;;;;;;;;;;;;;;;7.08;100.00;99538.53;5050160;28;1483;-69
2024/03/14 13:51:39;;;;;;;;;;;;;;;7.12;100.00;99537.38;5034886;28;1952;-68
2024/03/14 13:54:06;;;;;;;;;;;;;;;7.11;100.00;99546.78;5052824;28;831;-68
2024/03/14 13:56:33;;;;;;;;;;;;;;;7.16;100.00;99543.66;5052688;28;963;-66
2024/03/14 13:59:02;;;;;;;;;;;;;;;7.10;100.00;99547.94;5052827;28;898;-65
2024/03/14 14:01:33;;;;;;;;;;;;;;;7.05;100.00;99562.06;5052623;28;902;-65
2024/03/14 14:04:02;;;;;;;;;;;;;;;7.00;100.00;99556.13;5052624;28;915;-64
2024/03/14 14:06:28;;;;;;;;;;;;;;;7.01;100.00;99552.22;5052634;28;894;-65
2024/03/14 14:18:58;;;;;;;;;;;;;;;6.84;100.00;99572.94;5046393;28;1154;-66
2024/03/14 14:21:27;;;;;;;;;;;;;;;6.74;100.00;99563.44;5032447;28;839;-64